Burna, Kentucky
Current Conditions -  °F | °C
As of 9:55 PM on Saturday 22 Nov 2014 (Local Time) from K5M9 Reporting Station
Clear Clear  
Wind Chill: 12°   Ceiling: Unl
Heat Index: 12°   Visibility: 10mi
Dew Point:   Wind: 6mph
Humidity: 51%   Direction: 170°S
Pressure: 29.99"   Gusts: NA
Location:  37.25°N, 88.36°W
Report Text: K5M9 230355Z AUTO 17005KT 10SM CLR 12/02 A2999 RMK AO2 T01200021
Loading
Personal Weather Stations






























Interactive Weather Map New forecast layout! Learn more

10-Day Weather Forecast

Advertisements
Track Severe Weather on mobile